CheckWX is a tool to help pilots better visualize weather data.  It is not intended as a substitute for an official pre-flight weather briefing.

21:31:04 UTC

EFRO METAR
Rovaniemi Airport
Rovaniemi, Finland
Current

11 mins ago

EFRO 232120Z AUTO 21007KT CAVOK 01/M01 Q1014
Observed
Feb-23 @ 21:20 UTC
Wind
  • 210° at 7 KTS
Visibility
10,000+ meters
Flight Rules
VFR
Cloud Levels
  • Clear skies
Temperature
C / 34°F
Dewpoint
-1°C / 30°F
Humidity
87%
Altimeter
29.94" Hg
Pressure
1013.92 hPa
Previous

41 mins ago

EFRO 232050Z AUTO 26005KT 220V300 CAVOK 04/00 Q1014
Observed
Feb-23 @ 20:50 UTC
Wind
  • 260° at 5 KTS
Visibility
10,000+ meters
Flight Rules
VFR
Cloud Levels
  • Clear skies
Temperature
C / 39°F
Dewpoint
C / 32°F
Humidity
75%
Altimeter
29.94" Hg
Pressure
1013.92 hPa
Previous

1 hour ago

EFRO 232020Z AUTO 30005KT CAVOK 05/00 Q1014
Observed
Feb-23 @ 20:20 UTC
Wind
  • 300° at 5 KTS
Visibility
10,000+ meters
Flight Rules
VFR
Cloud Levels
  • Clear skies
Temperature
C / 41°F
Dewpoint
C / 32°F
Humidity
70%
Altimeter
29.94" Hg
Pressure
1013.92 hPa